Energy Center, Louisiana
Current Conditions -  °F | °C
As of 11:53 AM on Thursday 23 Oct 2014 (Local Time) from KLFT Reporting Station
Clear Clear  
Wind Chill: 71°   Ceiling: Unl
Heat Index: 71°   Visibility: 10mi
Dew Point: 49°   Wind: 6mph
Humidity: 45%   Direction: NA
Pressure: 30.12"   Gusts: NA
Location:  30.2247°N, 92.0198°W
Report Text: KLFT 231653Z VRB05KT 10SM CLR 22/09 A3012 RMK AO2 SLP198 T02170094
Loading
Personal Weather Stations






























Interactive Weather Map
Tropical Storm Tracking
New forecast layout! Learn more

10-Day Weather Forecast

Advertisements
Track Severe Weather on mobile